createdAt,value
2022-12-23T00:01:52.099Z,94993.34
2022-12-23T00:04:18.891Z,94985.50
2022-12-23T00:06:51.453Z,94992.41
2022-12-23T00:09:18.047Z,94995.91
2022-12-23T00:11:44.641Z,94986.03
2022-12-23T00:14:16.335Z,94979.81
2022-12-23T00:16:47.164Z,94985.56
2022-12-23T00:19:13.845Z,94988.28
2022-12-23T00:21:40.468Z,94985.28
2022-12-23T00:24:07.175Z,94984.06
2022-12-23T00:26:33.832Z,94983.38
2022-12-23T00:29:00.555Z,94971.31
2022-12-23T00:31:27.266Z,94969.53
2022-12-23T00:33:54.040Z,94989.50
2022-12-23T00:36:30.123Z,94971.06
2022-12-23T00:38:59.235Z,94957.19
2022-12-23T00:41:26.090Z,94956.88
2022-12-23T00:43:52.728Z,94964.66
2022-12-23T00:46:19.453Z,94962.63
2022-12-23T00:48:46.090Z,94970.72
2022-12-23T00:51:12.719Z,94955.84
2022-12-23T00:53:39.351Z,94960.66
2022-12-23T00:56:06.165Z,94969.00
2022-12-23T00:58:32.757Z,94962.47
2022-12-23T01:00:59.497Z,94961.00
2022-12-23T01:03:26.306Z,94956.97
2022-12-23T01:05:57.961Z,94965.81
2022-12-23T01:08:24.715Z,94967.81
2022-12-23T01:10:54.094Z,94963.03
2022-12-23T01:13:21.004Z,94965.59
2022-12-23T01:15:47.866Z,94969.06
2022-12-23T01:18:14.458Z,94972.97
2022-12-23T01:20:41.345Z,94982.78
2022-12-23T01:23:07.988Z,94972.66
2022-12-23T01:25:34.654Z,94974.69
2022-12-23T01:28:01.358Z,94966.41
2022-12-23T01:30:28.023Z,94975.94
2022-12-23T01:32:54.642Z,94980.53
2022-12-23T01:35:21.258Z,94981.69
2022-12-23T01:37:47.927Z,94986.97
2022-12-23T01:40:14.613Z,94981.34
2022-12-23T01:42:41.305Z,94994.34
2022-12-23T01:45:30.030Z,94983.31
2022-12-23T01:48:16.713Z,94971.59
2022-12-23T01:50:48.962Z,94984.25
2022-12-23T01:53:21.079Z,94981.59
2022-12-23T01:55:59.490Z,94983.56
2022-12-23T01:58:34.171Z,94982.88
2022-12-23T02:01:01.956Z,94987.91
2022-12-23T02:03:28.896Z,94975.03
2022-12-23T02:05:57.137Z,94982.63
2022-12-23T02:08:23.759Z,94977.81
2022-12-23T02:10:59.420Z,94980.91
2022-12-23T02:14:04.832Z,94971.34
2022-12-23T02:16:44.977Z,94965.28
2022-12-23T02:19:29.873Z,94968.94
2022-12-23T02:22:37.786Z,94961.47
2022-12-23T02:25:18.775Z,94966.06
2022-12-23T02:28:36.409Z,94976.03
2022-12-23T02:31:53.299Z,94971.56
2022-12-23T02:34:49.913Z,94962.28
2022-12-23T02:37:22.603Z,94960.31
2022-12-23T02:40:05.339Z,94964.47
2022-12-23T02:42:41.958Z,94970.81
2022-12-23T02:45:20.563Z,94981.47
2022-12-23T02:48:04.308Z,94962.97
2022-12-23T02:50:38.348Z,94971.25
2022-12-23T02:53:15.840Z,94970.22
2022-12-23T02:55:48.542Z,94966.06
2022-12-23T02:58:20.793Z,94962.84
2022-12-23T03:00:49.785Z,94962.63
2022-12-23T03:03:16.481Z,94975.47
2022-12-23T03:05:47.738Z,94958.47
2022-12-23T03:08:26.282Z,94968.34
2022-12-23T03:11:01.527Z,94978.94
2022-12-23T03:13:28.094Z,94982.97
2022-12-23T03:16:20.551Z,94977.34
2022-12-23T03:19:02.331Z,94967.56
2022-12-23T03:21:47.544Z,94966.06
2022-12-23T03:24:36.849Z,94962.41
2022-12-23T03:27:15.492Z,94947.06
2022-12-23T03:30:04.297Z,94950.38
2022-12-23T03:32:37.675Z,94946.59
2022-12-23T03:35:10.325Z,94944.84
2022-12-23T03:37:44.121Z,94946.34
2022-12-23T03:40:28.377Z,94953.63
2022-12-23T03:43:19.084Z,94953.13
2022-12-23T03:45:55.242Z,94955.69
2022-12-23T03:48:32.190Z,94951.56
2022-12-23T03:51:11.580Z,94946.91
2022-12-23T03:53:51.301Z,94943.28
2022-12-23T03:56:28.285Z,94944.84
2022-12-23T03:59:00.677Z,94942.47
2022-12-23T04:01:43.408Z,94947.19
2022-12-23T04:04:36.259Z,94948.91
2022-12-23T04:07:15.804Z,94948.38
2022-12-23T04:09:44.113Z,94953.47
2022-12-23T04:12:15.010Z,94943.78
2022-12-23T04:14:56.779Z,94949.94
2022-12-23T04:17:43.449Z,94946.09
2022-12-23T04:20:30.138Z,94944.25
2022-12-23T04:22:56.811Z,94951.25
2022-12-23T04:25:23.400Z,94945.59
2022-12-23T04:27:50.028Z,94946.72
2022-12-23T04:30:16.683Z,94945.22
2022-12-23T04:32:43.425Z,94942.78
2022-12-23T04:35:11.104Z,94937.59
2022-12-23T04:37:38.817Z,94934.16
2022-12-23T04:40:06.564Z,94940.50
2022-12-23T04:42:33.167Z,94944.84
2022-12-23T04:44:59.786Z,94946.44
2022-12-23T04:47:26.719Z,94948.94
2022-12-23T04:49:53.465Z,94954.72
2022-12-23T04:52:20.128Z,94952.41
2022-12-23T04:54:46.771Z,94967.97
2022-12-23T04:57:13.882Z,94962.53
2022-12-23T04:59:40.551Z,94950.72
2022-12-23T05:02:07.914Z,94956.34
2022-12-23T05:04:34.923Z,94958.38
2022-12-23T05:07:01.734Z,94957.66
2022-12-23T05:09:28.372Z,94954.16
2022-12-23T05:11:54.970Z,94954.59
2022-12-23T05:14:21.619Z,94946.97
2022-12-23T05:16:48.264Z,94953.91
2022-12-23T05:19:15.737Z,94960.31
2022-12-23T05:21:43.589Z,94949.00
2022-12-23T05:24:10.301Z,94957.28
2022-12-23T05:26:37.068Z,94966.34
2022-12-23T05:29:03.706Z,94957.75
2022-12-23T05:31:30.518Z,94962.22
2022-12-23T05:34:02.311Z,94968.66
2022-12-23T05:36:33.121Z,94962.28
2022-12-23T05:38:59.764Z,94959.13
2022-12-23T05:41:29.623Z,94950.03
2022-12-23T05:47:45.965Z,94943.63
2022-12-23T05:50:12.907Z,94952.78
2022-12-23T05:52:39.579Z,94944.34
2022-12-23T05:55:06.864Z,94932.06
2022-12-23T05:57:36.419Z,94927.28
2022-12-23T06:00:04.222Z,94936.81
2022-12-23T06:02:31.324Z,94937.06
2022-12-23T06:04:58.050Z,94933.97
2022-12-23T06:07:24.768Z,94937.25
2022-12-23T06:09:54.384Z,94933.63
2022-12-23T06:12:58.109Z,94933.66
2022-12-23T06:15:24.725Z,94936.94
2022-12-23T06:17:51.417Z,94939.53
2022-12-23T06:20:20.805Z,94934.41
2022-12-23T06:22:47.808Z,94941.97
2022-12-23T06:25:14.852Z,94948.38
2022-12-23T06:27:42.537Z,94935.53
2022-12-23T06:30:09.703Z,94936.91
2022-12-23T06:32:38.903Z,94932.34
2022-12-23T06:35:07.324Z,94927.59
2022-12-23T06:37:34.569Z,94922.84
2022-12-23T06:40:01.223Z,94928.38
2022-12-23T06:42:27.849Z,94924.72
2022-12-23T06:44:54.469Z,94924.91
2022-12-23T06:47:21.164Z,94944.53
2022-12-23T06:49:47.801Z,94963.75
2022-12-23T06:52:14.491Z,94964.59
2022-12-23T06:54:41.154Z,94962.28
2022-12-23T06:57:07.871Z,94966.66
2022-12-23T06:59:36.207Z,94974.63
2022-12-23T07:02:03.739Z,94971.72
2022-12-23T07:04:30.659Z,94980.59
2022-12-23T07:06:57.490Z,94981.16
2022-12-23T07:09:24.275Z,94976.81
2022-12-23T07:11:50.937Z,94965.06
2022-12-23T07:14:17.548Z,94956.47
2022-12-23T07:16:44.327Z,94954.84
2022-12-23T07:19:11.043Z,94958.13
2022-12-23T07:21:37.666Z,94963.94
2022-12-23T07:24:05.147Z,94968.44
2022-12-23T07:26:32.096Z,94973.28
2022-12-23T07:28:58.802Z,94982.63
2022-12-23T07:31:25.565Z,94991.38
2022-12-23T07:33:52.298Z,94987.28
2022-12-23T07:36:19.005Z,94990.47
2022-12-23T07:38:49.575Z,95003.84
2022-12-23T07:41:16.405Z,95012.03
2022-12-23T07:43:46.265Z,95009.88
2022-12-23T07:46:15.639Z,95003.22
2022-12-23T07:48:48.017Z,94989.03
2022-12-23T07:51:14.755Z,94983.75
2022-12-23T07:53:41.390Z,94984.31
2022-12-23T07:56:08.307Z,94997.28
2022-12-23T07:58:35.016Z,94975.78
2022-12-23T08:01:08.954Z,94982.81
2022-12-23T08:03:37.023Z,94989.34
2022-12-23T08:06:09.554Z,94993.53
2022-12-23T08:08:37.408Z,94982.53
2022-12-23T08:11:06.601Z,94988.16
2022-12-23T08:13:36.753Z,94980.28
2022-12-23T08:16:05.682Z,94983.53
2022-12-23T08:18:35.317Z,94983.56
2022-12-23T08:21:20.156Z,94984.47
2022-12-23T08:23:47.928Z,94984.50
2022-12-23T08:26:21.399Z,94986.31
2022-12-23T08:28:50.069Z,94995.94
2022-12-23T08:31:23.100Z,94996.28
2022-12-23T08:33:54.232Z,94995.47
2022-12-23T08:36:23.878Z,94991.88
2022-12-23T08:38:54.147Z,94993.31
2022-12-23T08:41:27.694Z,94998.91
2022-12-23T08:43:55.173Z,94999.41
2022-12-23T08:46:22.666Z,95009.13
2022-12-23T08:48:50.315Z,95008.22
2022-12-23T08:51:20.115Z,95011.16
2022-12-23T08:53:48.138Z,95017.38
2022-12-23T08:56:23.192Z,95027.78
2022-12-23T08:58:53.062Z,95019.56
2022-12-23T09:01:22.247Z,95021.84
2022-12-23T09:03:49.170Z,95027.25
2022-12-23T09:06:28.273Z,95022.66
2022-12-23T09:08:56.455Z,95031.84
2022-12-23T09:11:26.287Z,95025.69
2022-12-23T09:13:54.502Z,95024.56
2022-12-23T09:16:21.949Z,95033.53
2022-12-23T09:18:48.805Z,95032.28
2022-12-23T09:21:19.945Z,95027.56
2022-12-23T09:23:47.934Z,95036.53
2022-12-23T09:26:20.998Z,95038.63
2022-12-23T09:28:47.593Z,95037.78
2022-12-23T09:31:15.044Z,95044.47
2022-12-23T09:33:42.563Z,95051.63
2022-12-23T09:36:09.263Z,95045.84
2022-12-23T09:38:36.110Z,95060.09
2022-12-23T09:41:39.320Z,95058.22
2022-12-23T09:44:22.959Z,95059.75
2022-12-23T09:46:57.222Z,95053.63
2022-12-23T09:49:24.141Z,95050.59
2022-12-23T09:51:57.470Z,95045.78
2022-12-23T09:54:33.207Z,95039.34
2022-12-23T09:57:02.765Z,95043.63
2022-12-23T09:59:41.573Z,95037.81
2022-12-23T10:02:11.369Z,95038.63
2022-12-23T10:04:50.639Z,95039.75
2022-12-23T10:07:23.750Z,95047.31
2022-12-23T10:09:56.119Z,95034.47
2022-12-23T10:12:28.085Z,95026.63
2022-12-23T10:15:01.615Z,95033.63
2022-12-23T10:17:52.636Z,95033.38
2022-12-23T10:20:33.760Z,95024.84
2022-12-23T10:23:00.701Z,95032.16
2022-12-23T10:25:39.180Z,95019.59
2022-12-23T10:28:05.900Z,95022.19
2022-12-23T10:31:11.227Z,95026.53
2022-12-23T10:33:49.158Z,95020.38
2022-12-23T10:36:45.011Z,95031.06
2022-12-23T10:39:30.799Z,95028.94
2022-12-23T10:42:43.742Z,95027.06
2022-12-23T10:45:33.800Z,95036.25
2022-12-23T10:48:21.358Z,95033.41
2022-12-23T10:51:06.342Z,95036.44
2022-12-23T10:53:32.968Z,95025.91
2022-12-23T10:56:01.355Z,95021.84
2022-12-23T10:58:28.225Z,95019.66
2022-12-23T11:00:59.316Z,95023.31
2022-12-23T11:03:34.849Z,95034.66
2022-12-23T11:06:03.165Z,95025.31
2022-12-23T11:08:31.703Z,95019.28
2022-12-23T11:11:00.532Z,95018.59
2022-12-23T11:13:40.246Z,95023.53
2022-12-23T11:16:28.705Z,95016.25
2022-12-23T11:19:05.778Z,95019.75
2022-12-23T11:21:33.654Z,95027.50
2022-12-23T11:24:16.458Z,95034.88
2022-12-23T11:26:46.357Z,95031.25
2022-12-23T11:29:28.888Z,95026.06
2022-12-23T11:31:56.389Z,95033.94
2022-12-23T11:34:27.121Z,95039.69
2022-12-23T11:37:07.004Z,95034.88
2022-12-23T11:39:37.763Z,95032.47
2022-12-23T11:42:12.730Z,95032.47
2022-12-23T11:44:49.543Z,95039.63
2022-12-23T11:47:22.185Z,95037.16
2022-12-23T11:49:58.988Z,95036.03
2022-12-23T11:52:34.511Z,95039.09
2022-12-23T11:55:05.689Z,95021.63
2022-12-23T11:57:48.985Z,95029.13
2022-12-23T12:00:22.375Z,95035.31
2022-12-23T12:02:55.035Z,95031.53
2022-12-23T12:05:39.561Z,95033.38
2022-12-23T12:08:14.505Z,95028.97
2022-12-23T12:10:42.947Z,95020.13
2022-12-23T12:13:23.715Z,95023.25
2022-12-23T12:16:27.553Z,95018.66
2022-12-23T12:19:02.625Z,95014.38
2022-12-23T12:21:37.325Z,95010.38
2022-12-23T12:24:19.600Z,95010.81
2022-12-23T12:26:53.746Z,95017.81
2022-12-23T12:29:45.342Z,95024.75
2022-12-23T12:32:22.607Z,95013.69
2022-12-23T12:34:57.127Z,95014.88
2022-12-23T12:37:51.327Z,95020.38
2022-12-23T12:40:59.683Z,95023.06
2022-12-23T12:43:46.441Z,95017.31
2022-12-23T12:46:34.136Z,95011.81
2022-12-23T12:49:16.397Z,95025.38
2022-12-23T12:51:43.027Z,95011.94
2022-12-23T12:54:45.570Z,95023.63
2022-12-23T12:58:05.430Z,95015.31
2022-12-23T13:00:47.551Z,95013.44
2022-12-23T13:03:29.674Z,95012.91
2022-12-23T13:06:15.849Z,95008.69
2022-12-23T13:09:04.755Z,95009.66
2022-12-23T13:11:50.476Z,94995.06
2022-12-23T13:14:38.155Z,94991.69
2022-12-23T13:17:31.718Z,94993.94
2022-12-23T13:20:17.107Z,94990.44
2022-12-23T13:22:48.708Z,94982.75
2022-12-23T13:25:21.068Z,94991.09
2022-12-23T13:36:50.303Z,94998.53
2022-12-23T13:39:29.119Z,94985.97
2022-12-23T13:42:05.590Z,94999.44
2022-12-23T13:44:34.943Z,95006.50
2022-12-23T13:47:35.239Z,95004.19
2022-12-23T13:50:15.835Z,94996.53
2022-12-23T13:52:45.139Z,95007.16
2022-12-23T13:55:38.984Z,95008.94
2022-12-23T13:58:18.319Z,95016.19
2022-12-23T14:00:45.315Z,95012.06
2022-12-23T14:03:11.917Z,95002.44
2022-12-23T14:05:44.694Z,95005.56
2022-12-23T14:08:20.340Z,94995.34
2022-12-23T14:11:14.879Z,94982.72
2022-12-23T14:13:50.508Z,94990.25
2022-12-23T14:16:40.946Z,94990.59
2022-12-23T14:19:23.108Z,94997.47
2022-12-23T14:22:12.776Z,94997.91
2022-12-23T14:25:17.209Z,94998.03
2022-12-23T14:27:49.534Z,95014.75
2022-12-23T14:30:37.957Z,95013.38
2022-12-23T14:33:15.154Z,95015.69
2022-12-23T14:35:42.814Z,95012.75
2022-12-23T14:38:15.637Z,95013.53
2022-12-23T14:40:42.266Z,95010.00
2022-12-23T14:43:33.505Z,94993.69
2022-12-23T14:46:03.376Z,94994.97
2022-12-23T14:48:36.129Z,94982.91
2022-12-23T14:51:09.662Z,94991.84
2022-12-23T14:54:16.413Z,94992.66
2022-12-23T14:57:00.152Z,95002.53
2022-12-23T14:59:35.742Z,95018.31
2022-12-23T15:02:16.338Z,95001.34
2022-12-23T15:04:53.132Z,95003.22
2022-12-23T15:07:38.978Z,95003.22
2022-12-23T15:10:16.978Z,95005.91
2022-12-23T15:12:49.330Z,94999.59
2022-12-23T15:15:20.963Z,94992.47
2022-12-23T15:17:49.098Z,94995.78
2022-12-23T15:20:21.088Z,95012.50
2022-12-23T15:22:48.370Z,95007.38
2022-12-23T15:25:26.788Z,95004.81
2022-12-23T15:28:01.518Z,95019.69
2022-12-23T15:30:37.265Z,95032.75
2022-12-23T15:33:27.850Z,95025.31
2022-12-23T15:35:54.791Z,95024.72
2022-12-23T15:38:27.416Z,95017.56
2022-12-23T15:41:05.667Z,95031.31
2022-12-23T15:43:32.751Z,95030.56
2022-12-23T15:46:13.827Z,95023.47
2022-12-23T15:48:41.211Z,95046.25
2022-12-23T15:51:21.933Z,95027.28
2022-12-23T15:54:01.749Z,95025.00
2022-12-23T15:56:34.285Z,95028.75
2022-12-23T15:59:04.053Z,95013.91
2022-12-23T16:01:40.100Z,95023.44
2022-12-23T16:04:07.474Z,95012.97
2022-12-23T16:06:36.263Z,95017.78
2022-12-23T16:09:05.338Z,95030.09
2022-12-23T16:12:01.429Z,95026.31
2022-12-23T16:14:31.074Z,95045.19
2022-12-23T16:17:12.551Z,95026.78
2022-12-23T16:19:46.665Z,95030.16
2022-12-23T16:22:30.463Z,95030.06
2022-12-23T16:25:12.179Z,95036.03
2022-12-23T16:27:49.005Z,95031.53
2022-12-23T16:30:22.313Z,95030.16
2022-12-23T16:32:53.360Z,95015.16
2022-12-23T16:35:37.797Z,95018.78
2022-12-23T16:38:13.037Z,95023.31
2022-12-23T16:40:40.842Z,95023.66
2022-12-23T16:43:07.883Z,95029.09
2022-12-23T16:45:36.354Z,95026.50
2022-12-23T16:48:31.689Z,95021.94
2022-12-23T16:51:00.430Z,95015.16
2022-12-23T16:53:27.558Z,95020.47
2022-12-23T16:56:00.240Z,95030.34
2022-12-23T16:58:27.665Z,95036.25
2022-12-23T17:00:54.793Z,95046.13
2022-12-23T17:03:21.712Z,95035.69
2022-12-23T17:05:49.362Z,95016.19
2022-12-23T17:08:15.977Z,95006.53
2022-12-23T17:10:44.780Z,95010.78
2022-12-23T17:13:16.005Z,95024.25
2022-12-23T17:15:42.667Z,95023.00
2022-12-23T17:18:14.310Z,95026.69
2022-12-23T17:20:43.239Z,95037.50
2022-12-23T17:23:26.469Z,95047.31
2022-12-23T17:25:53.306Z,95038.31
2022-12-23T17:28:21.368Z,95033.53
2022-12-23T17:30:54.823Z,95037.25
2022-12-23T17:33:27.564Z,95039.22
2022-12-23T17:35:54.302Z,95030.31
2022-12-23T17:38:21.360Z,95043.03
2022-12-23T17:40:49.086Z,95044.44
2022-12-23T17:43:17.577Z,95052.72
2022-12-23T17:45:45.664Z,95052.09
2022-12-23T17:48:20.167Z,95058.44
2022-12-23T17:50:48.110Z,95045.56
2022-12-23T17:53:19.240Z,95058.13
2022-12-23T17:55:46.017Z,95059.59
2022-12-23T17:58:15.284Z,95056.84
2022-12-23T18:00:41.941Z,95080.66
2022-12-23T18:03:22.218Z,95080.50
2022-12-23T18:05:48.822Z,95127.09
2022-12-23T18:08:15.426Z,95110.44
2022-12-23T18:10:42.418Z,95121.53
2022-12-23T18:13:15.579Z,95134.44
2022-12-23T18:15:44.295Z,95129.78
2022-12-23T18:18:30.161Z,95124.03
2022-12-23T18:21:02.498Z,95133.91
2022-12-23T18:23:32.164Z,95135.00
2022-12-23T18:26:00.241Z,95127.28
2022-12-23T18:28:27.495Z,95129.16
2022-12-23T18:30:58.267Z,95139.72
2022-12-23T18:33:24.983Z,95142.75
2022-12-23T18:35:51.842Z,95145.16
2022-12-23T18:38:21.286Z,95161.72
2022-12-23T18:40:47.882Z,95160.50
2022-12-23T18:43:20.459Z,95160.19
2022-12-23T18:45:52.778Z,95149.88
2022-12-23T18:48:20.104Z,95155.88
2022-12-23T18:50:47.011Z,95155.47
2022-12-23T18:53:24.403Z,95146.34
2022-12-23T18:55:53.244Z,95154.56
2022-12-23T18:58:20.564Z,95153.81
2022-12-23T19:00:49.372Z,95154.44
2022-12-23T19:03:27.133Z,95163.16
2022-12-23T19:05:55.888Z,95155.03
2022-12-23T19:08:27.093Z,95138.56
2022-12-23T19:10:55.153Z,95132.59
2022-12-23T19:13:22.777Z,95123.38
2022-12-23T19:15:50.007Z,95114.38
2022-12-23T19:18:19.781Z,95111.47
2022-12-23T19:20:47.793Z,95106.44
2022-12-23T19:23:16.055Z,95098.44
2022-12-23T19:25:49.185Z,95100.53
2022-12-23T19:28:22.566Z,95100.06
2022-12-23T19:30:49.390Z,95096.19
2022-12-23T19:33:16.260Z,95099.13
2022-12-23T19:35:43.592Z,95099.31
2022-12-23T19:38:11.486Z,95101.13
2022-12-23T19:40:38.504Z,95127.81
2022-12-23T19:43:05.177Z,95144.16
2022-12-23T19:45:32.060Z,95133.69
2022-12-23T19:47:58.771Z,95120.50
2022-12-23T19:50:25.455Z,95100.53
2022-12-23T19:52:52.328Z,95096.16
2022-12-23T19:55:19.251Z,95077.66
2022-12-23T19:57:45.939Z,95070.13
2022-12-23T20:00:13.030Z,95077.19
2022-12-23T20:02:39.680Z,95101.78
2022-12-23T20:05:06.663Z,95090.31
2022-12-23T20:07:35.331Z,95074.78
2022-12-23T20:10:03.622Z,95071.19
2022-12-23T20:12:30.221Z,95080.06
2022-12-23T20:14:56.955Z,95077.19
2022-12-23T20:17:23.803Z,95069.03
2022-12-23T20:19:50.411Z,95078.44
2022-12-23T20:22:17.104Z,95091.22
2022-12-23T20:24:43.787Z,95093.50
2022-12-23T20:27:12.529Z,95094.56
2022-12-23T20:29:40.625Z,95090.50
2022-12-23T20:32:07.258Z,95083.94
2022-12-23T20:34:39.223Z,95075.84
2022-12-23T20:37:06.887Z,95079.69
2022-12-23T20:39:33.547Z,95070.84
2022-12-23T20:42:00.278Z,95085.41
2022-12-23T20:44:36.100Z,95076.50
2022-12-23T20:47:05.875Z,95073.03
2022-12-23T20:49:33.521Z,95078.63
2022-12-23T20:52:00.281Z,95082.22
2022-12-23T20:54:32.590Z,95087.47
2022-12-23T20:57:00.715Z,95080.72
2022-12-23T20:59:27.447Z,95074.72
2022-12-23T21:01:54.204Z,95092.97
2022-12-23T21:04:20.895Z,95100.75
2022-12-23T21:06:47.485Z,95085.97
2022-12-23T21:09:15.796Z,95081.22
2022-12-23T21:11:45.663Z,95088.81
2022-12-23T21:14:13.338Z,95084.47
2022-12-23T21:16:40.970Z,95084.09
2022-12-23T21:19:12.983Z,95079.09
2022-12-23T21:21:39.898Z,95085.34
2022-12-23T21:24:07.107Z,95077.59
2022-12-23T21:26:34.662Z,95083.66
2022-12-23T21:29:04.747Z,95078.66
2022-12-23T21:31:34.068Z,95084.28
2022-12-23T21:34:00.934Z,95089.09
2022-12-23T21:36:31.780Z,95103.94
2022-12-23T21:39:00.127Z,95099.03
2022-12-23T21:41:30.661Z,95093.16
2022-12-23T21:44:02.058Z,95102.63
2022-12-23T21:46:29.443Z,95111.75
2022-12-23T21:48:58.538Z,95106.09
2022-12-23T21:51:39.094Z,95106.00
2022-12-23T21:54:08.328Z,95109.13
2022-12-23T21:56:36.008Z,95117.06
2022-12-23T21:59:07.273Z,95114.75
2022-12-23T22:01:34.251Z,95099.00
2022-12-23T22:04:07.587Z,95086.66
2022-12-23T22:06:38.537Z,95087.88
2022-12-23T22:09:08.150Z,95085.53
2022-12-23T22:11:36.924Z,95072.28
2022-12-23T22:14:06.549Z,95078.13
2022-12-23T22:16:37.146Z,95090.28
2022-12-23T22:19:06.338Z,95075.53
2022-12-23T22:21:34.211Z,95076.94
2022-12-23T22:24:01.693Z,95090.19
2022-12-23T22:26:31.220Z,95081.75
2022-12-23T22:29:01.232Z,95070.06
2022-12-23T22:31:39.312Z,95073.50
2022-12-23T22:34:07.310Z,95078.44
2022-12-23T22:36:34.474Z,95068.47
2022-12-23T22:39:02.826Z,95061.69
2022-12-23T22:41:30.446Z,95068.19
2022-12-23T22:43:58.486Z,95071.13
2022-12-23T22:46:25.779Z,95081.94
2022-12-23T22:48:52.907Z,95076.59
2022-12-23T22:51:31.106Z,95073.28
2022-12-23T22:53:58.408Z,95082.28
2022-12-23T22:56:25.768Z,95084.56
2022-12-23T22:58:53.775Z,95100.34
2022-12-23T23:01:26.488Z,95109.94
2022-12-23T23:03:55.233Z,95111.06
2022-12-23T23:06:22.213Z,95099.41
2022-12-23T23:08:49.129Z,95086.56
2022-12-23T23:11:15.868Z,95084.56
2022-12-23T23:13:42.542Z,95108.38
2022-12-23T23:16:09.274Z,95109.09
2022-12-23T23:18:35.895Z,95113.38
2022-12-23T23:21:02.508Z,95106.88
2022-12-23T23:23:29.240Z,95123.81
2022-12-23T23:25:55.926Z,95127.75
2022-12-23T23:28:22.619Z,95134.50
2022-12-23T23:31:03.584Z,95137.28
2022-12-23T23:33:36.137Z,95138.28
2022-12-23T23:36:02.805Z,95152.59
2022-12-23T23:38:29.814Z,95166.22
2022-12-23T23:40:58.171Z,95161.84
2022-12-23T23:43:25.444Z,95159.31
2022-12-23T23:45:52.077Z,95155.97
2022-12-23T23:48:19.609Z,95152.59
2022-12-23T23:50:47.400Z,95162.25
2022-12-23T23:53:15.795Z,95169.78
2022-12-23T23:55:42.613Z,95175.63
2022-12-23T23:58:11.425Z,95176.22
